createdAt,value
2023-03-12T00:00:15.593Z,36.12
2023-03-12T00:00:38.654Z,36.15
2023-03-12T00:01:01.436Z,36.06
2023-03-12T00:01:30.665Z,36.08
2023-03-12T00:01:52.363Z,35.92
2023-03-12T00:02:14.011Z,35.98
2023-03-12T00:02:35.936Z,35.87
2023-03-12T00:02:59.883Z,36.09
2023-03-12T00:03:21.519Z,35.98
2023-03-12T00:03:43.703Z,35.91
2023-03-12T00:04:06.947Z,35.65
2023-03-12T00:04:29.002Z,35.60
2023-03-12T00:04:50.597Z,35.74
2023-03-12T00:05:12.205Z,35.35
2023-03-12T00:05:34.941Z,35.39
2023-03-12T00:05:56.474Z,35.21
2023-03-12T00:06:19.591Z,35.28
2023-03-12T00:06:41.253Z,35.69
2023-03-12T00:07:06.493Z,35.72
2023-03-12T00:07:28.130Z,35.53
2023-03-12T00:07:50.236Z,35.62
2023-03-12T00:08:13.079Z,35.63
2023-03-12T00:08:35.939Z,35.41
2023-03-12T00:08:58.213Z,35.42
2023-03-12T00:09:19.847Z,35.76
2023-03-12T00:09:41.414Z,35.91
2023-03-12T00:10:04.409Z,35.81
2023-03-12T00:10:26.408Z,35.67
2023-03-12T00:10:48.037Z,35.58
2023-03-12T00:11:11.683Z,35.69
2023-03-12T00:11:34.453Z,35.39
2023-03-12T00:11:56.074Z,35.36
2023-03-12T00:12:17.728Z,35.46
2023-03-12T00:12:40.349Z,35.52
2023-03-12T00:13:02.163Z,35.56
2023-03-12T00:13:23.857Z,35.48
2023-03-12T00:13:49.446Z,35.82
2023-03-12T00:14:12.225Z,36.05
2023-03-12T00:14:33.880Z,35.69
2023-03-12T00:14:55.504Z,35.61
2023-03-12T00:15:17.277Z,35.66
2023-03-12T00:15:41.744Z,35.68
2023-03-12T00:16:05.896Z,35.34
2023-03-12T00:16:28.262Z,35.49
2023-03-12T00:16:50.877Z,35.62
2023-03-12T00:17:12.553Z,35.28
2023-03-12T00:17:34.729Z,35.36
2023-03-12T00:17:56.367Z,35.26
2023-03-12T00:18:19.332Z,35.28
2023-03-12T00:18:43.666Z,35.29
2023-03-12T00:19:05.373Z,35.07
2023-03-12T00:19:28.954Z,35.32
2023-03-12T00:19:53.252Z,35.53
2023-03-12T00:20:15.198Z,35.28
2023-03-12T00:20:36.882Z,35.19
2023-03-12T00:20:58.641Z,35.11
2023-03-12T00:21:22.413Z,35.26
2023-03-12T00:21:44.009Z,35.32
2023-03-12T00:22:05.666Z,35.38
2023-03-12T00:22:27.765Z,35.53
2023-03-12T00:22:50.917Z,35.48
2023-03-12T00:23:12.513Z,35.59
2023-03-12T00:23:34.756Z,35.19
2023-03-12T00:23:56.656Z,35.37
2023-03-12T00:24:18.518Z,35.44
2023-03-12T00:24:41.171Z,35.50
2023-03-12T00:25:03.303Z,35.67
2023-03-12T00:25:25.002Z,35.78
2023-03-12T00:25:46.992Z,36.04
2023-03-12T00:26:11.878Z,36.15
2023-03-12T00:26:33.482Z,35.94
2023-03-12T00:26:55.169Z,36.17
2023-03-12T00:27:16.799Z,36.27
2023-03-12T00:27:39.401Z,36.85
2023-03-12T00:28:01.038Z,36.47
2023-03-12T00:28:22.767Z,36.32
2023-03-12T00:28:45.074Z,35.96
2023-03-12T00:29:07.645Z,36.03
2023-03-12T00:29:29.320Z,36.20
2023-03-12T00:29:51.063Z,36.04
2023-03-12T00:30:13.246Z,36.11
2023-03-12T00:30:36.005Z,36.12
2023-03-12T00:30:58.320Z,36.22
2023-03-12T00:31:22.324Z,35.97
2023-03-12T00:31:44.030Z,35.92
2023-03-12T00:32:07.631Z,35.87
2023-03-12T00:32:29.414Z,35.85
2023-03-12T00:32:51.224Z,35.84
2023-03-12T00:33:13.266Z,35.81
2023-03-12T00:33:36.281Z,35.93
2023-03-12T00:33:59.368Z,35.79
2023-03-12T00:34:21.007Z,35.93
2023-03-12T00:34:42.897Z,36.16
2023-03-12T00:35:06.098Z,35.92
2023-03-12T00:35:28.826Z,35.81
2023-03-12T00:35:50.742Z,35.84
2023-03-12T00:36:12.571Z,35.61
2023-03-12T00:36:34.237Z,35.66
2023-03-12T00:36:56.814Z,35.86
2023-03-12T00:37:18.529Z,35.91
2023-03-12T00:37:40.148Z,35.94
2023-03-12T00:38:01.746Z,35.83
2023-03-12T00:38:24.362Z,35.95
2023-03-12T00:38:45.994Z,35.89
2023-03-12T00:39:07.759Z,35.66
2023-03-12T00:39:29.359Z,35.68
2023-03-12T00:39:51.018Z,35.85
2023-03-12T00:40:13.925Z,35.81
2023-03-12T00:40:36.503Z,35.99
2023-03-12T00:40:58.133Z,35.39
2023-03-12T00:41:20.722Z,35.80
2023-03-12T00:41:43.323Z,35.87
2023-03-12T00:42:05.411Z,36.00
2023-03-12T00:42:27.255Z,36.23
2023-03-12T00:42:48.879Z,36.42
2023-03-12T00:43:10.886Z,36.35
2023-03-12T00:43:33.479Z,36.15
2023-03-12T00:43:55.137Z,35.83
2023-03-12T00:44:16.842Z,35.98
2023-03-12T00:44:38.613Z,36.12
2023-03-12T00:45:01.180Z,36.11
2023-03-12T00:45:22.855Z,35.99
2023-03-12T00:45:45.417Z,35.91
2023-03-12T00:46:07.064Z,35.99
2023-03-12T00:46:29.765Z,36.16
2023-03-12T00:46:51.516Z,36.24
2023-03-12T00:47:13.770Z,35.96
2023-03-12T00:47:35.395Z,35.92
2023-03-12T00:47:57.088Z,36.04
2023-03-12T00:48:19.661Z,36.10
2023-03-12T00:48:42.703Z,36.28
2023-03-12T00:49:04.485Z,36.34
2023-03-12T00:49:27.351Z,36.34
2023-03-12T00:49:48.997Z,36.13
2023-03-12T00:50:11.095Z,36.16
2023-03-12T00:50:32.896Z,36.31
2023-03-12T00:50:55.551Z,36.25
2023-03-12T00:51:17.187Z,36.23
2023-03-12T00:51:38.855Z,36.34
2023-03-12T00:52:00.448Z,36.56
2023-03-12T00:52:23.001Z,36.56
2023-03-12T00:52:44.686Z,36.32
2023-03-12T00:53:06.464Z,36.43
2023-03-12T00:53:28.094Z,36.51
2023-03-12T00:53:50.753Z,36.56
2023-03-12T00:54:12.407Z,36.53
2023-03-12T00:54:34.040Z,36.27
2023-03-12T00:54:58.193Z,36.75
2023-03-12T00:55:20.971Z,36.36
2023-03-12T00:55:42.743Z,36.43
2023-03-12T00:56:06.596Z,36.12
2023-03-12T00:56:28.191Z,36.33
2023-03-12T00:56:50.811Z,36.34
2023-03-12T00:57:12.480Z,36.36
2023-03-12T00:57:34.346Z,36.57
2023-03-12T00:57:56.184Z,36.51
2023-03-12T00:58:17.758Z,36.55
2023-03-12T00:58:42.665Z,36.47
2023-03-12T00:59:04.301Z,36.37
2023-03-12T00:59:25.969Z,36.36
2023-03-12T00:59:47.558Z,36.55
2023-03-12T01:00:12.549Z,36.50
2023-03-12T01:00:34.305Z,36.55
2023-03-12T01:00:55.958Z,36.45
2023-03-12T01:01:17.870Z,36.47
2023-03-12T01:01:40.122Z,36.70
2023-03-12T01:02:02.736Z,36.42
2023-03-12T01:02:24.336Z,36.48
2023-03-12T01:02:46.000Z,36.57
2023-03-12T01:03:07.684Z,36.63
2023-03-12T01:03:30.314Z,36.68
2023-03-12T01:03:55.603Z,36.82
2023-03-12T01:04:17.939Z,36.48
2023-03-12T01:04:39.573Z,36.61
2023-03-12T01:05:01.245Z,36.66
2023-03-12T01:05:24.086Z,36.68
2023-03-12T01:05:45.765Z,36.65
2023-03-12T01:06:08.079Z,36.77
2023-03-12T01:06:29.796Z,36.64
2023-03-12T01:06:52.394Z,36.64
2023-03-12T01:07:13.990Z,36.87
2023-03-12T01:07:36.043Z,36.91
2023-03-12T01:07:57.724Z,37.11
2023-03-12T01:08:20.677Z,37.21
2023-03-12T01:08:42.437Z,37.17
2023-03-12T01:09:05.276Z,37.11
2023-03-12T01:09:26.958Z,37.15
2023-03-12T01:09:49.753Z,37.38
2023-03-12T01:10:14.713Z,37.22
2023-03-12T01:10:37.654Z,37.08
2023-03-12T01:10:59.660Z,37.31
2023-03-12T01:11:22.866Z,37.08
2023-03-12T01:11:44.451Z,37.06
2023-03-12T01:12:06.669Z,36.96
2023-03-12T01:12:28.283Z,36.94
2023-03-12T01:12:51.073Z,36.98
2023-03-12T01:13:13.047Z,36.95
2023-03-12T01:13:34.700Z,37.03
2023-03-12T01:13:56.330Z,36.82
2023-03-12T01:14:18.905Z,36.86
2023-03-12T01:14:40.509Z,36.96
2023-03-12T01:15:02.198Z,36.68
2023-03-12T01:15:23.975Z,36.83
2023-03-12T01:15:46.567Z,36.74
2023-03-12T01:16:08.206Z,36.67
2023-03-12T01:16:30.378Z,36.52
2023-03-12T01:16:53.101Z,36.53
2023-03-12T01:17:15.397Z,36.71
2023-03-12T01:17:37.489Z,36.66
2023-03-12T01:17:59.101Z,36.75
2023-03-12T01:18:20.885Z,36.76
2023-03-12T01:18:43.931Z,36.85
2023-03-12T01:19:06.929Z,36.98
2023-03-12T01:19:28.542Z,36.93
2023-03-12T01:19:50.160Z,37.10
2023-03-12T01:20:12.492Z,36.87
2023-03-12T01:20:35.047Z,36.85
2023-03-12T01:20:56.696Z,37.02
2023-03-12T01:21:18.286Z,37.03
2023-03-12T01:21:40.178Z,36.87
2023-03-12T01:22:02.867Z,36.87
2023-03-12T01:22:30.482Z,36.90
2023-03-12T01:23:36.563Z,36.66
2023-03-12T01:23:58.915Z,36.61
2023-03-12T01:24:20.784Z,36.66
2023-03-12T01:24:42.493Z,36.35
2023-03-12T01:25:05.545Z,36.36
2023-03-12T01:25:27.217Z,36.64
2023-03-12T01:25:49.432Z,36.64
2023-03-12T01:26:11.059Z,36.74
2023-03-12T01:26:33.850Z,36.91
2023-03-12T01:26:56.482Z,36.88
2023-03-12T01:27:18.304Z,36.91
2023-03-12T01:27:39.952Z,36.79
2023-03-12T01:28:03.035Z,36.91
2023-03-12T01:28:25.807Z,36.96
2023-03-12T01:28:47.648Z,37.15
2023-03-12T01:29:10.246Z,37.02
2023-03-12T01:29:31.822Z,36.96
2023-03-12T01:29:53.940Z,37.12
2023-03-12T01:30:15.796Z,37.07
2023-03-12T01:30:38.401Z,36.98
2023-03-12T01:31:06.770Z,37.05
2023-03-12T01:31:28.533Z,37.24
2023-03-12T01:31:50.428Z,37.39
2023-03-12T01:32:13.050Z,37.38
2023-03-12T01:32:34.801Z,37.48
2023-03-12T01:32:56.570Z,37.37
2023-03-12T01:33:18.458Z,37.41
2023-03-12T01:33:41.273Z,37.40
2023-03-12T01:34:03.073Z,37.21
2023-03-12T01:34:26.054Z,37.14
2023-03-12T01:34:47.734Z,37.20
2023-03-12T01:35:10.889Z,37.04
2023-03-12T01:35:36.553Z,37.24
2023-03-12T01:35:58.315Z,36.90
2023-03-12T01:36:22.294Z,36.84
2023-03-12T01:36:47.659Z,37.00
2023-03-12T01:37:09.266Z,36.68
2023-03-12T01:37:32.413Z,36.75
2023-03-12T01:37:55.855Z,36.91
2023-03-12T01:38:20.693Z,36.63
2023-03-12T01:38:42.341Z,36.81
2023-03-12T01:39:04.400Z,36.95
2023-03-12T01:39:26.088Z,37.00
2023-03-12T01:39:48.637Z,36.99
2023-03-12T01:40:14.815Z,36.89
2023-03-12T01:40:36.642Z,36.83
2023-03-12T01:40:59.146Z,36.88
2023-03-12T01:41:21.885Z,37.02
2023-03-12T01:41:43.809Z,36.86
2023-03-12T01:42:06.208Z,37.17
2023-03-12T01:42:28.842Z,37.23
2023-03-12T01:42:52.438Z,37.29
2023-03-12T01:43:25.045Z,37.06
2023-03-12T01:43:47.826Z,37.04
2023-03-12T01:44:14.803Z,36.74
2023-03-12T01:44:55.461Z,36.94
2023-03-12T01:46:07.228Z,37.14
2023-03-12T01:46:32.428Z,37.35
2023-03-12T01:46:54.423Z,37.33
2023-03-12T01:47:19.471Z,37.12
2023-03-12T01:47:41.483Z,37.22
2023-03-12T01:48:05.462Z,37.20
2023-03-12T01:48:27.970Z,37.25
2023-03-12T01:48:54.743Z,37.26
2023-03-12T01:49:21.100Z,37.21
2023-03-12T01:49:45.980Z,37.37
2023-03-12T01:50:08.373Z,37.42
2023-03-12T01:50:30.134Z,37.27
2023-03-12T01:50:51.992Z,37.15
2023-03-12T01:51:17.371Z,37.29
2023-03-12T01:51:42.585Z,37.35
2023-03-12T01:52:07.378Z,37.18
2023-03-12T01:52:37.986Z,37.31
2023-03-12T01:53:00.371Z,37.47
2023-03-12T01:53:22.879Z,37.36
2023-03-12T01:53:47.742Z,37.23
2023-03-12T01:54:15.297Z,37.29
2023-03-12T01:54:41.143Z,37.50
2023-03-12T01:55:06.886Z,37.24
2023-03-12T01:55:31.802Z,37.40
2023-03-12T01:55:54.366Z,37.36
2023-03-12T01:56:19.005Z,37.59
2023-03-12T01:56:41.493Z,37.70
2023-03-12T01:57:09.209Z,37.53
2023-03-12T01:57:36.139Z,37.22
2023-03-12T01:57:58.665Z,37.21
2023-03-12T01:58:22.126Z,37.38
2023-03-12T01:58:47.225Z,37.46
2023-03-12T01:59:15.074Z,37.55
2023-03-12T01:59:42.507Z,37.58
2023-03-12T02:00:08.842Z,37.68
2023-03-12T02:00:38.168Z,38.01
2023-03-12T02:01:00.579Z,37.75
2023-03-12T02:01:23.006Z,37.78
2023-03-12T02:01:46.253Z,38.14
2023-03-12T02:02:08.625Z,37.97
2023-03-12T02:02:30.617Z,37.72
2023-03-12T02:03:00.442Z,37.64
2023-03-12T02:03:26.754Z,37.35
2023-03-12T02:03:53.874Z,37.34
2023-03-12T02:04:19.610Z,37.50
2023-03-12T02:04:46.923Z,37.56
2023-03-12T02:05:19.530Z,37.44
2023-03-12T02:05:47.552Z,37.33
2023-03-12T02:06:14.207Z,37.44
2023-03-12T02:06:43.741Z,37.45
2023-03-12T02:07:08.187Z,37.42
2023-03-12T02:07:29.791Z,37.45
2023-03-12T02:07:51.887Z,37.33
2023-03-12T02:08:16.354Z,37.58
2023-03-12T02:08:42.474Z,37.46
2023-03-12T02:09:07.285Z,37.53
2023-03-12T02:09:29.673Z,37.29
2023-03-12T02:09:52.572Z,37.16
2023-03-12T02:10:14.169Z,37.31
2023-03-12T02:10:35.823Z,37.63
2023-03-12T02:10:57.527Z,37.56
2023-03-12T02:11:20.295Z,37.56
2023-03-12T02:11:42.015Z,37.44
2023-03-12T02:12:04.277Z,37.36
2023-03-12T02:12:26.014Z,37.35
2023-03-12T02:12:47.876Z,37.38
2023-03-12T02:13:11.238Z,37.45
2023-03-12T02:13:38.981Z,37.44
2023-03-12T02:14:00.754Z,37.34
2023-03-12T02:14:23.379Z,37.56
2023-03-12T02:14:45.569Z,37.57
2023-03-12T02:15:08.587Z,37.35
2023-03-12T02:15:30.290Z,37.50
2023-03-12T02:15:52.954Z,37.49
2023-03-12T02:16:15.162Z,37.61
2023-03-12T02:16:36.978Z,37.42
2023-03-12T02:16:59.924Z,37.34
2023-03-12T02:17:21.616Z,37.41
2023-03-12T02:17:43.442Z,37.43
2023-03-12T02:18:07.194Z,37.43
2023-03-12T02:18:30.217Z,37.68
2023-03-12T02:18:54.965Z,37.54
2023-03-12T02:19:23.544Z,37.48
2023-03-12T02:19:53.700Z,37.90
2023-03-12T02:20:21.098Z,37.67
2023-03-12T02:20:49.610Z,37.33
2023-03-12T02:21:20.355Z,37.36
2023-03-12T02:21:42.259Z,37.28
2023-03-12T02:22:05.006Z,37.28
2023-03-12T02:22:26.754Z,37.33
2023-03-12T02:22:58.429Z,37.31
2023-03-12T02:23:28.941Z,37.30
2023-03-12T02:24:00.710Z,37.30
2023-03-12T02:24:31.810Z,37.43
2023-03-12T02:25:03.655Z,37.26
2023-03-12T02:25:30.954Z,37.33
2023-03-12T02:25:55.127Z,37.42
2023-03-12T02:26:19.618Z,37.42
2023-03-12T02:26:41.622Z,37.50
2023-03-12T02:27:05.845Z,37.38
2023-03-12T02:27:28.900Z,37.14
2023-03-12T02:27:51.732Z,37.00
2023-03-12T02:28:15.685Z,37.19
2023-03-12T02:28:43.827Z,37.34
2023-03-12T02:29:09.526Z,37.14
2023-03-12T02:29:34.185Z,37.10
2023-03-12T02:29:55.925Z,37.23
2023-03-12T02:30:19.442Z,37.09
2023-03-12T02:30:46.239Z,37.28
2023-03-12T02:31:09.961Z,37.35
2023-03-12T02:31:43.296Z,37.47
2023-03-12T02:32:09.205Z,37.39
2023-03-12T02:32:36.046Z,37.29
2023-03-12T02:32:59.825Z,37.47
2023-03-12T02:33:21.501Z,37.63
2023-03-12T02:33:43.308Z,37.43
2023-03-12T02:34:05.887Z,37.51
2023-03-12T02:34:27.701Z,37.54
2023-03-12T02:34:50.638Z,37.61
2023-03-12T02:35:14.330Z,37.62
2023-03-12T02:35:37.842Z,38.04
2023-03-12T02:35:59.635Z,37.92
2023-03-12T02:36:22.290Z,37.53
2023-03-12T02:36:43.897Z,37.43
2023-03-12T02:37:06.708Z,37.52
2023-03-12T02:37:28.427Z,37.27
2023-03-12T02:37:52.644Z,37.35
2023-03-12T02:38:37.989Z,37.50
2023-03-12T02:39:00.669Z,37.54
2023-03-12T02:39:22.668Z,37.70
2023-03-12T02:39:51.631Z,37.58
2023-03-12T02:40:18.709Z,37.54
2023-03-12T02:40:46.819Z,37.46
2023-03-12T02:41:18.702Z,37.17
2023-03-12T02:41:43.691Z,37.25
2023-03-12T02:42:05.749Z,37.17
2023-03-12T02:42:27.466Z,37.22
2023-03-12T02:42:49.437Z,37.19
2023-03-12T02:43:12.538Z,37.11
2023-03-12T02:43:35.142Z,37.08
2023-03-12T02:44:02.252Z,37.11
2023-03-12T02:44:26.786Z,37.10
2023-03-12T02:44:48.669Z,36.95
2023-03-12T02:45:10.734Z,36.89
2023-03-12T02:45:34.024Z,36.81
2023-03-12T02:45:56.997Z,36.92
2023-03-12T02:46:19.044Z,36.82
2023-03-12T02:46:43.710Z,36.92
2023-03-12T02:47:05.790Z,36.89
2023-03-12T02:47:28.469Z,37.16
2023-03-12T02:47:50.115Z,37.62
2023-03-12T02:48:11.729Z,37.57
2023-03-12T02:48:33.511Z,37.35
2023-03-12T02:48:56.174Z,37.28
2023-03-12T02:49:21.471Z,37.32
2023-03-12T02:49:43.158Z,37.59
2023-03-12T02:50:05.886Z,37.50
2023-03-12T02:50:27.754Z,37.46
2023-03-12T02:50:49.411Z,37.40
2023-03-12T02:51:12.145Z,37.22
2023-03-12T02:51:33.801Z,36.94
2023-03-12T02:51:56.131Z,37.06
2023-03-12T02:52:18.652Z,36.96
2023-03-12T02:52:40.353Z,37.15
2023-03-12T02:53:01.948Z,37.11
2023-03-12T02:53:23.543Z,37.06
2023-03-12T02:53:46.512Z,36.89
2023-03-12T02:54:09.662Z,37.09
2023-03-12T02:54:31.846Z,36.82
2023-03-12T02:54:53.453Z,36.78
2023-03-12T02:55:15.068Z,36.79
2023-03-12T02:55:36.780Z,36.94
2023-03-12T02:56:01.055Z,36.89
2023-03-12T02:56:23.541Z,37.12
2023-03-12T02:56:45.201Z,37.18
2023-03-12T02:57:06.805Z,36.74
2023-03-12T02:57:30.080Z,36.85
2023-03-12T02:57:51.896Z,36.62
2023-03-12T02:58:13.598Z,36.64
2023-03-12T02:58:36.226Z,36.64
2023-03-12T02:58:59.367Z,36.70
2023-03-12T02:59:25.234Z,36.90
2023-03-12T02:59:48.082Z,36.83
2023-03-12T03:00:12.604Z,37.07
2023-03-12T03:00:37.771Z,37.06
2023-03-12T03:00:59.473Z,36.95
2023-03-12T03:01:21.622Z,37.15
2023-03-12T03:01:43.359Z,36.87
2023-03-12T03:02:06.979Z,36.92
2023-03-12T03:02:28.649Z,36.86
2023-03-12T03:02:50.353Z,36.80
2023-03-12T03:03:12.079Z,36.74
2023-03-12T03:03:33.729Z,36.78
2023-03-12T03:03:56.577Z,36.99
2023-03-12T03:04:18.364Z,36.97
2023-03-12T03:04:40.634Z,36.98
2023-03-12T03:05:02.206Z,36.95
2023-03-12T03:05:23.990Z,36.99
2023-03-12T03:05:46.592Z,37.05
2023-03-12T03:06:08.610Z,36.81
2023-03-12T03:06:30.997Z,36.89
2023-03-12T03:06:52.852Z,36.75
2023-03-12T03:07:15.777Z,36.80
2023-03-12T03:07:37.864Z,36.87
2023-03-12T03:07:59.491Z,36.78
2023-03-12T03:08:21.302Z,36.74
2023-03-12T03:08:44.370Z,36.71
2023-03-12T03:09:06.080Z,36.73
2023-03-12T03:09:27.788Z,36.65
2023-03-12T03:09:49.528Z,36.60
2023-03-12T03:10:12.409Z,36.65
2023-03-12T03:10:34.268Z,36.72
2023-03-12T03:10:56.112Z,36.75
2023-03-12T03:11:19.487Z,36.82
2023-03-12T03:11:42.419Z,37.01
2023-03-12T03:12:05.033Z,36.91
2023-03-12T03:12:28.275Z,36.99
2023-03-12T03:12:51.566Z,36.94
2023-03-12T03:13:14.297Z,36.98
2023-03-12T03:13:35.965Z,37.03
2023-03-12T03:13:57.711Z,37.04
2023-03-12T03:14:19.385Z,36.91
2023-03-12T03:14:44.046Z,37.04
2023-03-12T03:15:08.699Z,36.84
2023-03-12T03:15:30.836Z,36.76
2023-03-12T03:15:52.747Z,36.95
2023-03-12T03:16:14.772Z,36.82
2023-03-12T03:16:37.607Z,36.75
2023-03-12T03:16:59.264Z,36.65
2023-03-12T03:17:23.332Z,36.58
2023-03-12T03:17:45.029Z,36.58
2023-03-12T03:18:07.681Z,36.88
2023-03-12T03:18:29.926Z,36.83
2023-03-12T03:18:51.738Z,37.13
2023-03-12T03:19:13.673Z,36.93
2023-03-12T03:19:36.297Z,36.92
2023-03-12T03:19:58.838Z,36.81
2023-03-12T03:20:21.357Z,36.72
2023-03-12T03:20:44.588Z,36.74
2023-03-12T03:21:09.324Z,36.79
2023-03-12T03:21:31.977Z,36.78
2023-03-12T03:21:53.634Z,36.83
2023-03-12T03:22:15.317Z,36.70
2023-03-12T03:22:38.085Z,36.74
2023-03-12T03:22:59.739Z,36.75
2023-03-12T03:23:21.437Z,36.64
2023-03-12T03:23:44.092Z,36.71
2023-03-12T03:24:07.178Z,36.81
2023-03-12T03:24:28.929Z,36.88
2023-03-12T03:24:50.518Z,36.96
2023-03-12T03:25:12.199Z,37.04
2023-03-12T03:25:34.139Z,36.79
2023-03-12T03:25:57.294Z,36.89
2023-03-12T03:26:22.374Z,37.01
2023-03-12T03:26:44.572Z,36.89
2023-03-12T03:27:06.274Z,36.91
2023-03-12T03:27:29.049Z,36.95
2023-03-12T03:27:50.835Z,36.82
2023-03-12T03:28:12.512Z,36.84
2023-03-12T03:28:34.282Z,36.91
2023-03-12T03:28:56.939Z,37.01
2023-03-12T03:29:18.607Z,36.99
2023-03-12T03:29:40.271Z,37.19
2023-03-12T03:30:03.759Z,37.42
2023-03-12T03:30:29.070Z,37.21
2023-03-12T03:30:52.993Z,37.31
2023-03-12T03:31:15.313Z,36.95
2023-03-12T03:31:37.745Z,37.12
2023-03-12T03:32:00.509Z,37.32
2023-03-12T03:32:22.127Z,37.27
2023-03-12T03:32:43.842Z,37.11
2023-03-12T03:33:06.870Z,37.08
2023-03-12T03:33:29.929Z,37.27
2023-03-12T03:33:51.912Z,37.28
2023-03-12T03:34:13.633Z,37.11
2023-03-12T03:34:35.353Z,37.13
2023-03-12T03:34:57.119Z,36.91
2023-03-12T03:35:22.066Z,37.07
2023-03-12T03:35:43.711Z,37.26
2023-03-12T03:36:08.188Z,37.17
2023-03-12T03:36:34.115Z,36.96
2023-03-12T03:37:04.366Z,36.92
2023-03-12T03:37:26.745Z,36.99
2023-03-12T03:37:48.372Z,36.84
2023-03-12T03:38:10.058Z,37.16
2023-03-12T03:38:34.615Z,37.17
2023-03-12T03:38:56.372Z,37.09
2023-03-12T03:39:18.567Z,37.14
2023-03-12T03:39:41.727Z,37.18
2023-03-12T03:40:03.963Z,37.36
2023-03-12T03:40:25.669Z,37.29
2023-03-12T03:40:47.349Z,37.23
2023-03-12T03:41:09.881Z,37.62
2023-03-12T03:41:37.761Z,37.57
2023-03-12T03:41:59.505Z,37.54
2023-03-12T03:42:22.672Z,37.41
2023-03-12T03:42:45.261Z,37.11
2023-03-12T03:43:06.981Z,37.43
2023-03-12T03:43:29.269Z,37.37
2023-03-12T03:43:50.898Z,37.44
2023-03-12T03:44:15.637Z,37.39
2023-03-12T03:44:37.765Z,37.45
2023-03-12T03:44:59.391Z,37.51
2023-03-12T03:45:21.171Z,37.50
2023-03-12T03:45:44.740Z,37.26
2023-03-12T03:46:06.541Z,37.35
2023-03-12T03:46:32.433Z,37.36
2023-03-12T03:46:58.811Z,37.21
2023-03-12T03:47:21.374Z,37.27
2023-03-12T03:47:43.015Z,37.33
2023-03-12T03:48:05.815Z,37.16
2023-03-12T03:48:27.820Z,37.19
2023-03-12T03:48:50.889Z,37.35
2023-03-12T03:49:12.529Z,37.41
2023-03-12T03:49:35.967Z,37.48
2023-03-12T03:49:57.639Z,37.30
2023-03-12T03:50:20.395Z,37.33
2023-03-12T03:50:42.612Z,37.54
2023-03-12T03:51:06.419Z,37.27
2023-03-12T03:51:31.985Z,37.09
2023-03-12T03:51:59.933Z,37.00
2023-03-12T03:52:27.798Z,37.24
2023-03-12T03:52:49.443Z,37.23
2023-03-12T03:53:12.577Z,37.21
2023-03-12T03:53:35.811Z,37.05
2023-03-12T03:54:00.292Z,37.17
2023-03-12T03:54:22.264Z,37.29
2023-03-12T03:54:44.305Z,37.14
2023-03-12T03:55:07.379Z,37.05
2023-03-12T03:55:29.058Z,37.43
2023-03-12T03:55:50.790Z,37.17
2023-03-12T03:56:14.747Z,37.18
2023-03-12T03:56:43.048Z,37.16
2023-03-12T03:57:05.266Z,37.15
2023-03-12T03:57:27.244Z,37.30
2023-03-12T03:57:49.115Z,37.20
2023-03-12T03:58:10.940Z,37.30
2023-03-12T03:58:33.770Z,37.31
2023-03-12T03:58:55.539Z,37.38
2023-03-12T03:59:17.524Z,37.41
2023-03-12T03:59:39.632Z,37.31
2023-03-12T04:00:03.804Z,37.40
2023-03-12T04:00:35.301Z,37.53
2023-03-12T04:00:57.012Z,37.40
2023-03-12T04:01:19.530Z,37.46
2023-03-12T04:01:43.029Z,37.30
2023-03-12T04:02:04.737Z,37.36
2023-03-12T04:02:29.541Z,37.19
2023-03-12T04:02:51.284Z,37.47
2023-03-12T04:03:14.236Z,37.26
2023-03-12T04:03:36.244Z,37.40
2023-03-12T04:03:59.630Z,37.14
2023-03-12T04:04:21.555Z,37.21
2023-03-12T04:04:44.300Z,37.29
2023-03-12T04:05:06.600Z,37.34
2023-03-12T04:05:28.321Z,37.22
2023-03-12T04:05:55.062Z,37.16
2023-03-12T04:06:17.681Z,37.46
2023-03-12T04:06:39.966Z,37.20
2023-03-12T04:07:01.511Z,37.22
2023-03-12T04:07:23.398Z,37.07
2023-03-12T04:07:46.046Z,37.32
2023-03-12T04:08:08.758Z,37.36
2023-03-12T04:08:32.849Z,37.23
2023-03-12T04:08:55.447Z,37.05
2023-03-12T04:09:19.120Z,37.02
2023-03-12T04:09:40.892Z,36.86
2023-03-12T04:10:03.251Z,37.03
2023-03-12T04:10:25.414Z,37.22
2023-03-12T04:10:48.057Z,37.24
2023-03-12T04:11:11.851Z,37.20
2023-03-12T04:11:33.525Z,37.12
2023-03-12T04:11:57.778Z,37.19
2023-03-12T04:12:23.945Z,36.99
2023-03-12T04:12:45.754Z,37.06
2023-03-12T04:13:07.359Z,36.90
2023-03-12T04:13:29.093Z,37.11
2023-03-12T04:13:51.099Z,37.00
2023-03-12T04:14:16.612Z,36.57
2023-03-12T04:14:41.171Z,36.62
2023-03-12T04:15:04.326Z,36.73
2023-03-12T04:15:26.145Z,36.48
2023-03-12T04:15:49.504Z,36.62
2023-03-12T04:16:12.691Z,36.60
2023-03-12T04:16:34.420Z,36.76
2023-03-12T04:16:57.040Z,36.61
2023-03-12T04:17:20.109Z,36.83
2023-03-12T04:17:42.028Z,36.72
2023-03-12T04:18:03.959Z,36.94
2023-03-12T04:18:26.022Z,36.76
2023-03-12T04:18:48.969Z,36.72
2023-03-12T04:19:11.745Z,36.74
2023-03-12T04:19:33.475Z,36.69
2023-03-12T04:19:55.178Z,36.70
2023-03-12T04:20:18.284Z,36.69
2023-03-12T04:20:39.874Z,36.86
2023-03-12T04:21:03.273Z,36.86
2023-03-12T04:21:24.968Z,36.82
2023-03-12T04:21:47.690Z,36.70
2023-03-12T04:22:09.331Z,36.85
2023-03-12T04:22:31.050Z,36.88
2023-03-12T04:22:52.785Z,36.85
2023-03-12T04:23:15.394Z,36.71
2023-03-12T04:23:38.109Z,36.62
2023-03-12T04:24:00.220Z,36.85
2023-03-12T04:24:25.779Z,36.86
2023-03-12T04:24:48.428Z,36.79
2023-03-12T04:25:10.911Z,36.58
2023-03-12T04:25:32.885Z,36.67
2023-03-12T04:25:54.500Z,36.63
2023-03-12T04:26:17.413Z,36.73
2023-03-12T04:26:39.063Z,36.54
2023-03-12T04:27:03.041Z,36.63
2023-03-12T04:27:25.672Z,36.68
2023-03-12T04:27:47.329Z,36.87
2023-03-12T04:28:09.137Z,36.90
2023-03-12T04:28:33.624Z,36.58
2023-03-12T04:28:55.330Z,36.57
2023-03-12T04:29:17.926Z,36.62
2023-03-12T04:29:40.655Z,36.63
2023-03-12T04:30:02.474Z,36.64
2023-03-12T04:30:24.409Z,36.66
2023-03-12T04:30:55.680Z,36.59
2023-03-12T04:31:17.482Z,36.53
2023-03-12T04:31:48.224Z,36.88
2023-03-12T04:32:09.964Z,36.85
2023-03-12T04:32:32.639Z,37.01
2023-03-12T04:32:54.401Z,36.87
2023-03-12T04:33:16.011Z,36.71
2023-03-12T04:33:39.466Z,36.78
2023-03-12T04:34:02.933Z,36.84
2023-03-12T04:34:24.537Z,36.92
2023-03-12T04:34:48.327Z,36.82
2023-03-12T04:35:11.633Z,36.82
2023-03-12T04:35:34.385Z,36.72
2023-03-12T04:35:56.241Z,36.58
2023-03-12T04:36:18.687Z,36.65
2023-03-12T04:36:43.069Z,36.89
2023-03-12T04:37:05.658Z,36.87
2023-03-12T04:37:27.487Z,36.85
2023-03-12T04:37:49.170Z,36.97
2023-03-12T04:38:10.874Z,37.08
2023-03-12T04:38:33.481Z,36.95
2023-03-12T04:38:56.664Z,36.90
2023-03-12T04:39:22.506Z,36.56
2023-03-12T04:39:47.390Z,36.71
2023-03-12T04:40:11.305Z,36.77
2023-03-12T04:40:32.947Z,36.57
2023-03-12T04:40:58.794Z,36.44
2023-03-12T04:41:20.593Z,36.55
2023-03-12T04:41:51.302Z,36.55
2023-03-12T04:42:14.379Z,36.54
2023-03-12T04:42:37.971Z,36.60
2023-03-12T04:42:59.707Z,36.75
2023-03-12T04:43:21.542Z,36.87
2023-03-12T04:43:45.096Z,36.80
2023-03-12T04:44:07.925Z,36.77
2023-03-12T04:44:30.904Z,36.77
2023-03-12T04:44:53.577Z,36.64
2023-03-12T04:45:15.724Z,36.70
2023-03-12T04:45:40.366Z,36.90
2023-03-12T04:46:02.611Z,36.81
2023-03-12T04:46:25.378Z,37.05
2023-03-12T04:46:47.296Z,37.16
2023-03-12T04:47:12.860Z,37.12
2023-03-12T04:47:35.598Z,37.07
2023-03-12T04:47:57.903Z,37.08
2023-03-12T04:48:19.560Z,37.20
2023-03-12T04:48:42.448Z,37.12
2023-03-12T04:49:05.347Z,37.31
2023-03-12T04:49:29.486Z,37.38
2023-03-12T04:49:51.311Z,37.67
2023-03-12T04:50:13.903Z,37.43
2023-03-12T04:50:36.691Z,37.56
2023-03-12T04:50:58.435Z,37.50
2023-03-12T04:51:20.519Z,37.57
2023-03-12T04:51:42.462Z,37.67
2023-03-12T04:52:05.567Z,37.89
2023-03-12T04:52:27.410Z,37.84
2023-03-12T04:52:49.098Z,37.94
2023-03-12T04:53:11.109Z,38.17
2023-03-12T04:53:33.938Z,38.36
2023-03-12T04:53:56.396Z,38.82
2023-03-12T04:54:18.066Z,38.77
2023-03-12T04:54:40.713Z,38.99
2023-03-12T04:55:02.781Z,38.85
2023-03-12T04:55:24.377Z,38.94
2023-03-12T04:55:45.982Z,39.25
2023-03-12T04:56:08.919Z,39.54
2023-03-12T04:56:30.780Z,39.70
2023-03-12T04:56:52.971Z,39.88
2023-03-12T04:57:18.303Z,40.16
2023-03-12T04:57:40.878Z,40.21
2023-03-12T04:58:03.498Z,40.47
2023-03-12T04:58:25.576Z,40.53